sensor_id;sensor_type;location;lat;lon;timestamp;pressure;altitude;pressure_sealevel;temperature;humidity
74790;BME280;63318;52.406;13.416;2023-05-07T00:00:45;101826.69;;;8.65;80.69
74790;BME280;63318;52.406;13.416;2023-05-07T00:03:14;101824.09;;;8.65;80.88
74790;BME280;63318;52.406;13.416;2023-05-07T00:05:43;101823.88;;;8.65;80.86
74790;BME280;63318;52.406;13.416;2023-05-07T00:08:13;101823.96;;;8.66;80.65
74790;BME280;63318;52.406;13.416;2023-05-07T00:10:43;101824.39;;;8.66;80.85
74790;BME280;63318;52.406;13.416;2023-05-07T00:13:12;101825.84;;;8.66;80.95
74790;BME280;63318;52.406;13.416;2023-05-07T00:15:41;101828.05;;;8.66;80.83
74790;BME280;63318;52.406;13.416;2023-05-07T00:18:10;101826.73;;;8.66;80.79
74790;BME280;63318;52.406;13.416;2023-05-07T00:20:38;101822.51;;;8.66;80.90
74790;BME280;63318;52.406;13.416;2023-05-07T00:23:06;101822.27;;;8.65;80.71
74790;BME280;63318;52.406;13.416;2023-05-07T00:25:35;101824.35;;;8.65;80.58
74790;BME280;63318;52.406;13.416;2023-05-07T00:28:04;101823.40;;;8.65;80.60
74790;BME280;63318;52.406;13.416;2023-05-07T00:30:33;101827.34;;;8.65;80.53
74790;BME280;63318;52.406;13.416;2023-05-07T00:33:04;101824.98;;;8.65;80.46
74790;BME280;63318;52.406;13.416;2023-05-07T00:35:33;101823.78;;;8.66;80.66
74790;BME280;63318;52.406;13.416;2023-05-07T00:38:04;101821.64;;;8.67;80.44
74790;BME280;63318;52.406;13.416;2023-05-07T00:40:33;101821.21;;;8.67;80.52
74790;BME280;63318;52.406;13.416;2023-05-07T00:43:02;101826.20;;;8.67;80.72
74790;BME280;63318;52.406;13.416;2023-05-07T00:45:32;101823.98;;;8.67;80.33
74790;BME280;63318;52.406;13.416;2023-05-07T00:48:02;101826.23;;;8.67;80.34
74790;BME280;63318;52.406;13.416;2023-05-07T00:50:33;101822.36;;;8.67;80.36
74790;BME280;63318;52.406;13.416;2023-05-07T00:53:02;101821.98;;;8.67;80.28
74790;BME280;63318;52.406;13.416;2023-05-07T00:55:34;101822.36;;;8.67;80.27
74790;BME280;63318;52.406;13.416;2023-05-07T00:58:05;101819.52;;;8.67;80.10
74790;BME280;63318;52.406;13.416;2023-05-07T01:00:34;101816.17;;;8.67;80.05
74790;BME280;63318;52.406;13.416;2023-05-07T01:03:03;101817.51;;;8.67;80.05
74790;BME280;63318;52.406;13.416;2023-05-07T01:05:36;101816.48;;;8.67;80.16
74790;BME280;63318;52.406;13.416;2023-05-07T01:08:06;101816.15;;;8.66;79.99
74790;BME280;63318;52.406;13.416;2023-05-07T01:10:35;101811.65;;;8.66;79.92
74790;BME280;63318;52.406;13.416;2023-05-07T01:13:04;101816.85;;;8.65;79.89
74790;BME280;63318;52.406;13.416;2023-05-07T01:15:33;101821.11;;;8.65;79.93
74790;BME280;63318;52.406;13.416;2023-05-07T01:18:02;101824.39;;;8.66;80.20
74790;BME280;63318;52.406;13.416;2023-05-07T01:20:32;101827.71;;;8.66;79.96
74790;BME280;63318;52.406;13.416;2023-05-07T01:23:02;101826.77;;;8.66;80.16
74790;BME280;63318;52.406;13.416;2023-05-07T01:25:32;101824.94;;;8.66;79.90
74790;BME280;63318;52.406;13.416;2023-05-07T01:28:02;101824.40;;;8.67;79.89
74790;BME280;63318;52.406;13.416;2023-05-07T01:30:32;101820.80;;;8.66;79.94
74790;BME280;63318;52.406;13.416;2023-05-07T01:33:03;101823.52;;;8.66;80.07
74790;BME280;63318;52.406;13.416;2023-05-07T01:35:35;101823.02;;;8.66;79.87
74790;BME280;63318;52.406;13.416;2023-05-07T01:38:07;101820.24;;;8.66;80.15
74790;BME280;63318;52.406;13.416;2023-05-07T01:40:36;101821.61;;;8.66;80.15
74790;BME280;63318;52.406;13.416;2023-05-07T01:43:05;101818.59;;;8.65;80.03
74790;BME280;63318;52.406;13.416;2023-05-07T01:45:35;101820.30;;;8.65;80.07
74790;BME280;63318;52.406;13.416;2023-05-07T01:48:06;101820.27;;;8.64;79.80
74790;BME280;63318;52.406;13.416;2023-05-07T01:50:36;101823.83;;;8.63;80.03
74790;BME280;63318;52.406;13.416;2023-05-07T01:53:06;101822.08;;;8.63;80.07
74790;BME280;63318;52.406;13.416;2023-05-07T01:55:34;101821.30;;;8.63;79.93
74790;BME280;63318;52.406;13.416;2023-05-07T01:58:04;101825.84;;;8.62;80.05
74790;BME280;63318;52.406;13.416;2023-05-07T02:00:33;101828.23;;;8.61;79.94
74790;BME280;63318;52.406;13.416;2023-05-07T02:03:02;101833.48;;;8.61;79.83
74790;BME280;63318;52.406;13.416;2023-05-07T02:05:30;101832.94;;;8.60;79.79
74790;BME280;63318;52.406;13.416;2023-05-07T02:07:59;101839.24;;;8.60;79.85
74790;BME280;63318;52.406;13.416;2023-05-07T02:10:28;101841.94;;;8.60;80.14
74790;BME280;63318;52.406;13.416;2023-05-07T02:12:58;101841.60;;;8.59;80.08
74790;BME280;63318;52.406;13.416;2023-05-07T02:15:27;101841.29;;;8.60;80.05
74790;BME280;63318;52.406;13.416;2023-05-07T02:18:02;101843.13;;;8.60;80.05
74790;BME280;63318;52.406;13.416;2023-05-07T02:20:31;101845.37;;;8.60;79.86
74790;BME280;63318;52.406;13.416;2023-05-07T02:23:00;101842.48;;;8.60;80.00
74790;BME280;63318;52.406;13.416;2023-05-07T02:25:29;101847.86;;;8.60;79.84
74790;BME280;63318;52.406;13.416;2023-05-07T02:27:57;101844.52;;;8.59;79.80
74790;BME280;63318;52.406;13.416;2023-05-07T02:30:27;101842.94;;;8.58;80.14
74790;BME280;63318;52.406;13.416;2023-05-07T02:32:55;101843.94;;;8.57;79.98
74790;BME280;63318;52.406;13.416;2023-05-07T02:35:26;101844.88;;;8.57;79.84
74790;BME280;63318;52.406;13.416;2023-05-07T02:37:54;101845.19;;;8.57;79.72
74790;BME280;63318;52.406;13.416;2023-05-07T02:40:23;101849.66;;;8.56;79.83
74790;BME280;63318;52.406;13.416;2023-05-07T02:42:53;101851.33;;;8.56;79.71
74790;BME280;63318;52.406;13.416;2023-05-07T02:45:22;101852.38;;;8.57;79.93
74790;BME280;63318;52.406;13.416;2023-05-07T02:47:53;101851.18;;;8.57;79.67
74790;BME280;63318;52.406;13.416;2023-05-07T02:50:22;101850.17;;;8.57;79.80
74790;BME280;63318;52.406;13.416;2023-05-07T02:52:51;101851.54;;;8.56;79.57
74790;BME280;63318;52.406;13.416;2023-05-07T02:55:19;101851.88;;;8.56;79.48
74790;BME280;63318;52.406;13.416;2023-05-07T02:57:48;101855.75;;;8.57;79.62
74790;BME280;63318;52.406;13.416;2023-05-07T03:00:19;101859.16;;;8.56;79.77
74790;BME280;63318;52.406;13.416;2023-05-07T03:02:48;101862.31;;;8.56;79.55
74790;BME280;63318;52.406;13.416;2023-05-07T03:05:17;101862.14;;;8.55;79.73
74790;BME280;63318;52.406;13.416;2023-05-07T03:07:46;101859.88;;;8.56;79.58
74790;BME280;63318;52.406;13.416;2023-05-07T03:10:14;101861.24;;;8.55;79.52
74790;BME280;63318;52.406;13.416;2023-05-07T03:12:43;101864.64;;;8.55;79.42
74790;BME280;63318;52.406;13.416;2023-05-07T03:15:13;101862.96;;;8.55;79.53
74790;BME280;63318;52.406;13.416;2023-05-07T03:17:42;101865.40;;;8.55;79.31
74790;BME280;63318;52.406;13.416;2023-05-07T03:20:13;101869.55;;;8.54;79.58
74790;BME280;63318;52.406;13.416;2023-05-07T03:22:41;101870.48;;;8.54;79.58
74790;BME280;63318;52.406;13.416;2023-05-07T03:25:12;101870.98;;;8.54;79.67
74790;BME280;63318;52.406;13.416;2023-05-07T03:27:42;101873.76;;;8.55;79.78
74790;BME280;63318;52.406;13.416;2023-05-07T03:30:13;101875.91;;;8.55;79.47
74790;BME280;63318;52.406;13.416;2023-05-07T03:32:42;101873.92;;;8.55;79.69
74790;BME280;63318;52.406;13.416;2023-05-07T03:35:12;101872.82;;;8.55;79.38
74790;BME280;63318;52.406;13.416;2023-05-07T03:37:41;101878.20;;;8.55;79.35
74790;BME280;63318;52.406;13.416;2023-05-07T03:40:11;101877.73;;;8.54;79.65
74790;BME280;63318;52.406;13.416;2023-05-07T03:42:40;101877.77;;;8.54;79.35
74790;BME280;63318;52.406;13.416;2023-05-07T03:45:10;101877.60;;;8.54;79.28
74790;BME280;63318;52.406;13.416;2023-05-07T03:47:40;101877.61;;;8.52;79.57
74790;BME280;63318;52.406;13.416;2023-05-07T03:50:11;101882.86;;;8.52;79.38
74790;BME280;63318;52.406;13.416;2023-05-07T03:52:39;101887.56;;;8.51;79.44
74790;BME280;63318;52.406;13.416;2023-05-07T03:55:09;101893.95;;;8.52;79.53
74790;BME280;63318;52.406;13.416;2023-05-07T03:57:38;101901.02;;;8.51;79.15
74790;BME280;63318;52.406;13.416;2023-05-07T04:00:09;101900.46;;;8.51;79.50
74790;BME280;63318;52.406;13.416;2023-05-07T04:02:37;101892.97;;;8.51;79.44
74790;BME280;63318;52.406;13.416;2023-05-07T04:05:08;101890.20;;;8.49;79.48
74790;BME280;63318;52.406;13.416;2023-05-07T04:07:37;101889.98;;;8.49;79.38
74790;BME280;63318;52.406;13.416;2023-05-07T04:10:06;101890.67;;;8.48;79.17
74790;BME280;63318;52.406;13.416;2023-05-07T04:12:36;101890.90;;;8.49;79.43
74790;BME280;63318;52.406;13.416;2023-05-07T04:15:05;101892.57;;;8.49;79.58
74790;BME280;63318;52.406;13.416;2023-05-07T04:17:35;101897.98;;;8.50;79.59
74790;BME280;63318;52.406;13.416;2023-05-07T04:20:06;101900.76;;;8.50;79.44
74790;BME280;63318;52.406;13.416;2023-05-07T04:22:35;101904.41;;;8.50;79.20
74790;BME280;63318;52.406;13.416;2023-05-07T04:25:04;101904.55;;;8.49;79.31
74790;BME280;63318;52.406;13.416;2023-05-07T04:27:33;101906.46;;;8.50;79.50
74790;BME280;63318;52.406;13.416;2023-05-07T04:30:02;101905.57;;;8.49;79.60
74790;BME280;63318;52.406;13.416;2023-05-07T04:32:32;101909.83;;;8.49;79.16
74790;BME280;63318;52.406;13.416;2023-05-07T04:35:03;101914.21;;;8.50;79.12
74790;BME280;63318;52.406;13.416;2023-05-07T04:37:33;101918.84;;;8.51;79.14
74790;BME280;63318;52.406;13.416;2023-05-07T04:40:02;101918.09;;;8.52;79.31
74790;BME280;63318;52.406;13.416;2023-05-07T04:42:31;101922.05;;;8.53;79.24
74790;BME280;63318;52.406;13.416;2023-05-07T04:45:02;101923.95;;;8.53;79.20
74790;BME280;63318;52.406;13.416;2023-05-07T04:47:32;101922.74;;;8.56;79.08
74790;BME280;63318;52.406;13.416;2023-05-07T04:50:00;101923.08;;;8.57;79.24
74790;BME280;63318;52.406;13.416;2023-05-07T04:52:33;101924.11;;;8.58;79.36
74790;BME280;63318;52.406;13.416;2023-05-07T04:55:03;101923.96;;;8.59;79.15
74790;BME280;63318;52.406;13.416;2023-05-07T04:57:33;101929.19;;;8.61;79.06
74790;BME280;63318;52.406;13.416;2023-05-07T05:00:02;101936.08;;;8.62;79.05
74790;BME280;63318;52.406;13.416;2023-05-07T05:02:33;101933.67;;;8.62;79.12
74790;BME280;63318;52.406;13.416;2023-05-07T05:05:03;101935.14;;;8.62;79.13
74790;BME280;63318;52.406;13.416;2023-05-07T05:07:32;101938.75;;;8.63;78.91
74790;BME280;63318;52.406;13.416;2023-05-07T05:10:01;101940.70;;;8.63;78.99
74790;BME280;63318;52.406;13.416;2023-05-07T05:12:30;101940.40;;;8.64;78.87
74790;BME280;63318;52.406;13.416;2023-05-07T05:14:59;101940.00;;;8.66;78.90
74790;BME280;63318;52.406;13.416;2023-05-07T05:17:27;101946.75;;;8.67;78.77
74790;BME280;63318;52.406;13.416;2023-05-07T05:19:57;101951.69;;;8.69;78.95
74790;BME280;63318;52.406;13.416;2023-05-07T05:22:26;101953.92;;;8.70;78.78
74790;BME280;63318;52.406;13.416;2023-05-07T05:24:55;101955.18;;;8.71;78.70
74790;BME280;63318;52.406;13.416;2023-05-07T05:27:24;101953.23;;;8.73;78.77
74790;BME280;63318;52.406;13.416;2023-05-07T05:29:54;101946.73;;;8.76;78.83
74790;BME280;63318;52.406;13.416;2023-05-07T05:32:23;101946.04;;;8.79;78.75
74790;BME280;63318;52.406;13.416;2023-05-07T05:34:52;101949.67;;;8.82;78.72
74790;BME280;63318;52.406;13.416;2023-05-07T05:37:22;101952.70;;;8.85;78.45
74790;BME280;63318;52.406;13.416;2023-05-07T05:39:51;101950.44;;;8.88;78.58
74790;BME280;63318;52.406;13.416;2023-05-07T05:42:21;101951.81;;;8.91;78.40
74790;BME280;63318;52.406;13.416;2023-05-07T05:44:50;101951.98;;;8.94;78.38
74790;BME280;63318;52.406;13.416;2023-05-07T05:47:19;101955.10;;;8.99;78.22
74790;BME280;63318;52.406;13.416;2023-05-07T05:49:48;101957.09;;;9.04;77.98
74790;BME280;63318;52.406;13.416;2023-05-07T05:52:16;101957.73;;;9.10;77.82
74790;BME280;63318;52.406;13.416;2023-05-07T05:54:46;101954.98;;;9.14;77.70
74790;BME280;63318;52.406;13.416;2023-05-07T05:57:18;101956.77;;;9.20;77.70
74790;BME280;63318;52.406;13.416;2023-05-07T05:59:46;101955.93;;;9.28;77.51
74790;BME280;63318;52.406;13.416;2023-05-07T06:02:18;101960.75;;;9.43;77.35
74790;BME280;63318;52.406;13.416;2023-05-07T06:04:47;101959.11;;;9.59;77.13
74790;BME280;63318;52.406;13.416;2023-05-07T06:07:21;101958.55;;;9.82;76.98
74790;BME280;63318;52.406;13.416;2023-05-07T06:09:58;101955.29;;;10.00;76.57
74790;BME280;63318;52.406;13.416;2023-05-07T06:12:27;101958.20;;;10.18;76.03
74790;BME280;63318;52.406;13.416;2023-05-07T06:14:56;101960.22;;;10.24;75.57
74790;BME280;63318;52.406;13.416;2023-05-07T06:17:25;101960.59;;;10.28;75.51
74790;BME280;63318;52.406;13.416;2023-05-07T06:19:54;101958.39;;;10.29;75.56
74790;BME280;63318;52.406;13.416;2023-05-07T06:22:22;101959.16;;;10.29;75.33
74790;BME280;63318;52.406;13.416;2023-05-07T06:24:52;101959.66;;;10.31;75.11
74790;BME280;63318;52.406;13.416;2023-05-07T06:27:21;101969.59;;;10.33;75.07
74790;BME280;63318;52.406;13.416;2023-05-07T06:29:51;101976.93;;;10.33;74.82
74790;BME280;63318;52.406;13.416;2023-05-07T06:32:20;101978.59;;;10.33;75.02
74790;BME280;63318;52.406;13.416;2023-05-07T06:34:49;101979.93;;;10.33;74.76
74790;BME280;63318;52.406;13.416;2023-05-07T06:37:17;101982.38;;;10.36;75.00
74790;BME280;63318;52.406;13.416;2023-05-07T06:39:46;101982.64;;;10.38;74.69
74790;BME280;63318;52.406;13.416;2023-05-07T06:42:14;101984.39;;;10.41;74.70
74790;BME280;63318;52.406;13.416;2023-05-07T06:44:43;101993.91;;;10.46;74.77
74790;BME280;63318;52.406;13.416;2023-05-07T06:47:11;101998.59;;;10.52;74.54
74790;BME280;63318;52.406;13.416;2023-05-07T06:49:41;102004.58;;;10.56;74.68
74790;BME280;63318;52.406;13.416;2023-05-07T06:52:09;102002.05;;;10.60;74.38
74790;BME280;63318;52.406;13.416;2023-05-07T06:54:38;102004.80;;;10.62;74.25
74790;BME280;63318;52.406;13.416;2023-05-07T06:57:07;102004.89;;;10.63;74.17
74790;BME280;63318;52.406;13.416;2023-05-07T06:59:36;102003.42;;;10.64;74.05
74790;BME280;63318;52.406;13.416;2023-05-07T07:02:05;102006.88;;;10.67;74.14
74790;BME280;63318;52.406;13.416;2023-05-07T07:04:36;102005.73;;;10.71;74.17
74790;BME280;63318;52.406;13.416;2023-05-07T07:07:05;102000.96;;;10.74;74.02
74790;BME280;63318;52.406;13.416;2023-05-07T07:09:34;102004.19;;;10.81;74.05
74790;BME280;63318;52.406;13.416;2023-05-07T07:12:02;102003.46;;;10.88;73.60
74790;BME280;63318;52.406;13.416;2023-05-07T07:14:32;102004.93;;;10.92;73.65
74790;BME280;63318;52.406;13.416;2023-05-07T07:17:00;102007.46;;;10.99;73.51
74790;BME280;63318;52.406;13.416;2023-05-07T07:19:29;102003.15;;;11.03;73.23
74790;BME280;63318;52.406;13.416;2023-05-07T07:21:58;102000.84;;;11.06;73.22
74790;BME280;63318;52.406;13.416;2023-05-07T07:24:27;102003.55;;;11.11;72.99
74790;BME280;63318;52.406;13.416;2023-05-07T07:26:56;102005.99;;;11.17;73.07
74790;BME280;63318;52.406;13.416;2023-05-07T07:29:25;102009.70;;;11.21;72.87
74790;BME280;63318;52.406;13.416;2023-05-07T07:31:53;102010.12;;;11.28;72.56
74790;BME280;63318;52.406;13.416;2023-05-07T07:34:24;102009.54;;;11.35;72.51
74790;BME280;63318;52.406;13.416;2023-05-07T07:37:10;102001.57;;;11.41;72.36
74790;BME280;63318;52.406;13.416;2023-05-07T07:39:38;101998.05;;;11.48;72.13
74790;BME280;63318;52.406;13.416;2023-05-07T07:42:07;101993.11;;;11.52;72.13
74790;BME280;63318;52.406;13.416;2023-05-07T07:44:35;101997.95;;;11.60;72.02
74790;BME280;63318;52.406;13.416;2023-05-07T07:47:03;101995.59;;;11.70;71.53
74790;BME280;63318;52.406;13.416;2023-05-07T07:49:32;101993.34;;;11.78;71.54
74790;BME280;63318;52.406;13.416;2023-05-07T07:52:00;101995.05;;;11.92;71.44
74790;BME280;63318;52.406;13.416;2023-05-07T07:54:29;101990.36;;;12.19;71.27
74790;BME280;63318;52.406;13.416;2023-05-07T07:56:58;101992.91;;;12.59;70.70
74790;BME280;63318;52.406;13.416;2023-05-07T07:59:27;101991.78;;;13.03;70.05
74790;BME280;63318;52.406;13.416;2023-05-07T08:01:56;101992.30;;;13.46;68.95
74790;BME280;63318;52.406;13.416;2023-05-07T08:04:25;101994.00;;;13.87;68.04
74790;BME280;63318;52.406;13.416;2023-05-07T08:06:54;101988.23;;;14.30;68.05
74790;BME280;63318;52.406;13.416;2023-05-07T08:09:22;101994.70;;;14.66;66.48
74790;BME280;63318;52.406;13.416;2023-05-07T08:11:53;101986.50;;;14.96;65.85
74790;BME280;63318;52.406;13.416;2023-05-07T08:14:21;101988.51;;;15.05;65.13
74790;BME280;63318;52.406;13.416;2023-05-07T08:16:50;101987.41;;;15.22;65.02
74790;BME280;63318;52.406;13.416;2023-05-07T08:19:19;101984.36;;;15.50;64.84
74790;BME280;63318;52.406;13.416;2023-05-07T08:21:47;101987.29;;;15.76;64.23
74790;BME280;63318;52.406;13.416;2023-05-07T08:24:16;101982.75;;;16.01;63.37
74790;BME280;63318;52.406;13.416;2023-05-07T08:26:46;101975.11;;;16.31;62.72
74790;BME280;63318;52.406;13.416;2023-05-07T08:29:15;101979.91;;;16.57;60.62
74790;BME280;63318;52.406;13.416;2023-05-07T08:31:43;101985.14;;;16.79;61.12
74790;BME280;63318;52.406;13.416;2023-05-07T08:34:12;101991.11;;;16.93;58.77
74790;BME280;63318;52.406;13.416;2023-05-07T08:36:40;101990.42;;;17.09;59.89
74790;BME280;63318;52.406;13.416;2023-05-07T08:39:08;101988.85;;;17.23;59.52
74790;BME280;63318;52.406;13.416;2023-05-07T08:41:38;101990.64;;;17.46;59.11
74790;BME280;63318;52.406;13.416;2023-05-07T08:44:07;101989.45;;;17.61;58.06
74790;BME280;63318;52.406;13.416;2023-05-07T08:46:41;101993.96;;;17.76;57.76
74790;BME280;63318;52.406;13.416;2023-05-07T08:49:10;101991.41;;;17.93;57.66
74790;BME280;63318;52.406;13.416;2023-05-07T08:51:43;101987.35;;;18.08;56.79
74790;BME280;63318;52.406;13.416;2023-05-07T08:54:12;101992.29;;;18.23;56.55
74790;BME280;63318;52.406;13.416;2023-05-07T08:56:43;101996.83;;;18.31;56.24
74790;BME280;63318;52.406;13.416;2023-05-07T08:59:13;101991.76;;;18.24;55.33
74790;BME280;63318;52.406;13.416;2023-05-07T09:01:42;101995.95;;;18.04;55.77
74790;BME280;63318;52.406;13.416;2023-05-07T09:04:11;101996.98;;;17.92;55.59
74790;BME280;63318;52.406;13.416;2023-05-07T09:06:40;101997.42;;;17.86;56.13
74790;BME280;63318;52.406;13.416;2023-05-07T09:09:09;101994.61;;;17.79;55.59
74790;BME280;63318;52.406;13.416;2023-05-07T09:11:38;101999.02;;;17.67;55.48
74790;BME280;63318;52.406;13.416;2023-05-07T09:14:06;101996.94;;;17.57;55.17
74790;BME280;63318;52.406;13.416;2023-05-07T09:16:35;101996.27;;;17.43;54.66
74790;BME280;63318;52.406;13.416;2023-05-07T09:19:03;101997.92;;;17.38;54.92
74790;BME280;63318;52.406;13.416;2023-05-07T09:21:32;102000.39;;;17.40;55.19
74790;BME280;63318;52.406;13.416;2023-05-07T09:24:01;102002.38;;;17.61;55.04
74790;BME280;63318;52.406;13.416;2023-05-07T09:26:30;102005.02;;;17.78;54.61
74790;BME280;63318;52.406;13.416;2023-05-07T09:28:58;102001.70;;;17.79;54.18
74790;BME280;63318;52.406;13.416;2023-05-07T09:31:27;102001.64;;;17.86;54.08
74790;BME280;63318;52.406;13.416;2023-05-07T09:33:56;102001.66;;;17.84;53.82
74790;BME280;63318;52.406;13.416;2023-05-07T09:36:26;102001.79;;;17.75;53.98
74790;BME280;63318;52.406;13.416;2023-05-07T09:38:56;102006.13;;;17.63;53.78
74790;BME280;63318;52.406;13.416;2023-05-07T09:41:27;102004.77;;;17.51;54.02
74790;BME280;63318;52.406;13.416;2023-05-07T09:43:59;102004.08;;;17.43;53.68
74790;BME280;63318;52.406;13.416;2023-05-07T09:46:29;102007.82;;;17.38;54.45
74790;BME280;63318;52.406;13.416;2023-05-07T09:48:59;102012.27;;;17.32;53.41
74790;BME280;63318;52.406;13.416;2023-05-07T09:51:33;102014.93;;;17.30;53.35
74790;BME280;63318;52.406;13.416;2023-05-07T09:54:03;102016.69;;;17.25;53.38
74790;BME280;63318;52.406;13.416;2023-05-07T09:56:33;102021.45;;;17.17;53.40
74790;BME280;63318;52.406;13.416;2023-05-07T09:59:02;102023.92;;;17.16;53.56
74790;BME280;63318;52.406;13.416;2023-05-07T10:01:33;102022.23;;;17.20;53.63
74790;BME280;63318;52.406;13.416;2023-05-07T10:04:05;102029.58;;;17.21;53.70
74790;BME280;63318;52.406;13.416;2023-05-07T10:06:34;102024.77;;;17.17;53.03
74790;BME280;63318;52.406;13.416;2023-05-07T10:09:04;102021.10;;;17.17;53.55
74790;BME280;63318;52.406;13.416;2023-05-07T10:11:34;102021.99;;;17.33;53.26
74790;BME280;63318;52.406;13.416;2023-05-07T10:14:04;102015.27;;;17.40;53.19
74790;BME280;63318;52.406;13.416;2023-05-07T10:16:34;102019.14;;;17.43;52.65
74790;BME280;63318;52.406;13.416;2023-05-07T10:19:04;102019.67;;;17.34;52.41
74790;BME280;63318;52.406;13.416;2023-05-07T10:21:36;102015.48;;;17.44;52.60
74790;BME280;63318;52.406;13.416;2023-05-07T10:24:08;102020.59;;;17.70;52.82
74790;BME280;63318;52.406;13.416;2023-05-07T10:26:36;102017.11;;;18.00;52.11
74790;BME280;63318;52.406;13.416;2023-05-07T10:29:10;102020.30;;;18.22;51.93
74790;BME280;63318;52.406;13.416;2023-05-07T10:31:51;102026.42;;;18.38;50.99
74790;BME280;63318;52.406;13.416;2023-05-07T10:34:26;102028.90;;;18.39;51.42
74790;BME280;63318;52.406;13.416;2023-05-07T10:36:56;102026.89;;;18.42;51.12
74790;BME280;63318;52.406;13.416;2023-05-07T10:39:25;102023.08;;;18.40;50.65
74790;BME280;63318;52.406;13.416;2023-05-07T10:41:54;102021.36;;;18.31;50.73
74790;BME280;63318;52.406;13.416;2023-05-07T10:44:29;102023.13;;;18.29;51.05
74790;BME280;63318;52.406;13.416;2023-05-07T10:47:08;102023.45;;;18.42;50.86
74790;BME280;63318;52.406;13.416;2023-05-07T10:49:38;102027.27;;;18.44;49.72
74790;BME280;63318;52.406;13.416;2023-05-07T10:52:26;102029.31;;;18.37;50.41
74790;BME280;63318;52.406;13.416;2023-05-07T10:55:20;102034.29;;;18.21;50.51
74790;BME280;63318;52.406;13.416;2023-05-07T10:57:51;102033.78;;;17.99;50.77
74790;BME280;63318;52.406;13.416;2023-05-07T11:00:43;102027.06;;;18.00;50.58
74790;BME280;63318;52.406;13.416;2023-05-07T11:03:12;102030.70;;;18.04;49.96
74790;BME280;63318;52.406;13.416;2023-05-07T11:05:42;102024.34;;;17.96;50.31
74790;BME280;63318;52.406;13.416;2023-05-07T11:08:12;102028.29;;;17.89;49.68
74790;BME280;63318;52.406;13.416;2023-05-07T11:10:55;102027.88;;;17.80;50.24
74790;BME280;63318;52.406;13.416;2023-05-07T11:13:44;102023.06;;;17.70;50.52
74790;BME280;63318;52.406;13.416;2023-05-07T11:16:21;102018.48;;;17.65;50.86
74790;BME280;63318;52.406;13.416;2023-05-07T11:18:51;102016.94;;;17.60;50.52
74790;BME280;63318;52.406;13.416;2023-05-07T11:21:37;102016.45;;;17.56;50.93
74790;BME280;63318;52.406;13.416;2023-05-07T11:24:08;102014.84;;;17.54;50.88
74790;BME280;63318;52.406;13.416;2023-05-07T11:26:46;102009.59;;;17.75;50.98
74790;BME280;63318;52.406;13.416;2023-05-07T11:29:18;102011.90;;;17.91;50.61
74790;BME280;63318;52.406;13.416;2023-05-07T11:31:50;102006.46;;;17.95;50.29
74790;BME280;63318;52.406;13.416;2023-05-07T11:34:17;102005.08;;;17.93;50.07
74790;BME280;63318;52.406;13.416;2023-05-07T11:36:49;102005.34;;;17.89;50.15
74790;BME280;63318;52.406;13.416;2023-05-07T11:39:29;102002.29;;;17.91;50.02
74790;BME280;63318;52.406;13.416;2023-05-07T11:41:58;102006.42;;;17.93;50.03
74790;BME280;63318;52.406;13.416;2023-05-07T11:44:40;101998.21;;;17.94;49.48
74790;BME280;63318;52.406;13.416;2023-05-07T11:47:09;101999.54;;;17.98;50.00
74790;BME280;63318;52.406;13.416;2023-05-07T11:49:37;101999.31;;;17.98;49.65
74790;BME280;63318;52.406;13.416;2023-05-07T11:52:06;102004.12;;;18.00;49.66
74790;BME280;63318;52.406;13.416;2023-05-07T11:54:38;102004.58;;;17.99;49.52
74790;BME280;63318;52.406;13.416;2023-05-07T11:57:06;102010.00;;;18.05;49.68
74790;BME280;63318;52.406;13.416;2023-05-07T11:59:40;102008.56;;;18.14;49.48
74790;BME280;63318;52.406;13.416;2023-05-07T12:02:09;102008.29;;;18.32;49.30
74790;BME280;63318;52.406;13.416;2023-05-07T12:04:39;102003.09;;;18.42;48.57
74790;BME280;63318;52.406;13.416;2023-05-07T12:07:13;102000.89;;;18.56;48.36
74790;BME280;63318;52.406;13.416;2023-05-07T12:09:42;101992.95;;;18.72;48.43
74790;BME280;63318;52.406;13.416;2023-05-07T12:12:11;101991.58;;;18.91;47.36
74790;BME280;63318;52.406;13.416;2023-05-07T12:14:41;101993.42;;;18.95;47.61
74790;BME280;63318;52.406;13.416;2023-05-07T12:17:10;101997.13;;;19.06;46.92
74790;BME280;63318;52.406;13.416;2023-05-07T12:19:41;101997.95;;;19.07;47.29
74790;BME280;63318;52.406;13.416;2023-05-07T12:22:11;102008.00;;;19.05;47.33
74790;BME280;63318;52.406;13.416;2023-05-07T12:24:48;102006.63;;;19.07;46.88
74790;BME280;63318;52.406;13.416;2023-05-07T12:27:19;102007.18;;;19.08;46.81
74790;BME280;63318;52.406;13.416;2023-05-07T12:29:48;102008.38;;;19.12;46.78
74790;BME280;63318;52.406;13.416;2023-05-07T12:32:17;102004.17;;;19.23;46.91
74790;BME280;63318;52.406;13.416;2023-05-07T12:34:49;102005.30;;;19.17;46.47
74790;BME280;63318;52.406;13.416;2023-05-07T12:37:22;102006.65;;;19.02;46.41
74790;BME280;63318;52.406;13.416;2023-05-07T12:40:05;102005.14;;;18.96;46.05
74790;BME280;63318;52.406;13.416;2023-05-07T12:42:37;102003.42;;;19.06;46.37
74790;BME280;63318;52.406;13.416;2023-05-07T12:45:11;102008.23;;;19.14;46.60
74790;BME280;63318;52.406;13.416;2023-05-07T12:47:45;102008.55;;;19.06;46.47
74790;BME280;63318;52.406;13.416;2023-05-07T12:50:14;102010.10;;;19.00;46.62
74790;BME280;63318;52.406;13.416;2023-05-07T12:52:45;102009.10;;;19.03;46.54
74790;BME280;63318;52.406;13.416;2023-05-07T12:55:15;102001.73;;;19.04;46.20
74790;BME280;63318;52.406;13.416;2023-05-07T12:57:45;102002.48;;;19.06;46.20
74790;BME280;63318;52.406;13.416;2023-05-07T13:00:18;102003.09;;;19.11;45.88